sensor_id;sensor_type;location;lat;lon;timestamp;P1;durP1;ratioP1;P2;durP2;ratioP2
28577;SDS011;15769;52.248;15.818;2023-02-18T00:00:46;17.75;;;5.95;;
28577;SDS011;15769;52.248;15.818;2023-02-18T00:05:57;18.05;;;4.28;;
28577;SDS011;15769;52.248;15.818;2023-02-18T00:11:01;17.52;;;5.03;;
28577;SDS011;15769;52.248;15.818;2023-02-18T00:16:10;21.85;;;5.25;;
28577;SDS011;15769;52.248;15.818;2023-02-18T00:21:15;17.88;;;3.85;;
28577;SDS011;15769;52.248;15.818;2023-02-18T00:26:37;16.70;;;4.13;;
28577;SDS011;15769;52.248;15.818;2023-02-18T00:31:46;15.77;;;3.70;;
28577;SDS011;15769;52.248;15.818;2023-02-18T00:36:54;10.43;;;3.17;;
28577;SDS011;15769;52.248;15.818;2023-02-18T00:42:02;10.48;;;3.28;;
28577;SDS011;15769;52.248;15.818;2023-02-18T00:47:10;7.78;;;2.40;;
28577;SDS011;15769;52.248;15.818;2023-02-18T00:52:19;7.70;;;2.70;;
28577;SDS011;15769;52.248;15.818;2023-02-18T00:57:29;12.18;;;2.85;;
28577;SDS011;15769;52.248;15.818;2023-02-18T01:02:44;8.77;;;2.65;;
28577;SDS011;15769;52.248;15.818;2023-02-18T01:07:56;11.63;;;2.85;;
28577;SDS011;15769;52.248;15.818;2023-02-18T01:13:09;10.82;;;3.03;;
28577;SDS011;15769;52.248;15.818;2023-02-18T01:18:27;15.77;;;3.65;;
28577;SDS011;15769;52.248;15.818;2023-02-18T01:23:55;13.70;;;3.90;;
28577;SDS011;15769;52.248;15.818;2023-02-18T01:29:04;14.52;;;3.55;;
28577;SDS011;15769;52.248;15.818;2023-02-18T01:34:12;15.13;;;3.33;;
28577;SDS011;15769;52.248;15.818;2023-02-18T01:39:20;13.23;;;3.15;;
28577;SDS011;15769;52.248;15.818;2023-02-18T01:44:27;12.38;;;3.33;;
28577;SDS011;15769;52.248;15.818;2023-02-18T01:49:35;13.68;;;3.83;;
28577;SDS011;15769;52.248;15.818;2023-02-18T01:54:43;14.65;;;4.00;;
28577;SDS011;15769;52.248;15.818;2023-02-18T01:59:55;15.20;;;4.20;;
28577;SDS011;15769;52.248;15.818;2023-02-18T02:05:31;16.23;;;4.00;;
28577;SDS011;15769;52.248;15.818;2023-02-18T02:27:02;15.98;;;3.05;;
28577;SDS011;15769;52.248;15.818;2023-02-18T02:32:21;10.88;;;2.50;;
28577;SDS011;15769;52.248;15.818;2023-02-18T02:43:10;12.15;;;3.00;;
28577;SDS011;15769;52.248;15.818;2023-02-18T02:54:13;15.10;;;3.15;;
28577;SDS011;15769;52.248;15.818;2023-02-18T02:59:23;15.48;;;2.92;;
28577;SDS011;15769;52.248;15.818;2023-02-18T03:15:06;11.35;;;2.72;;
28577;SDS011;15769;52.248;15.818;2023-02-18T03:25:26;10.82;;;2.67;;
28577;SDS011;15769;52.248;15.818;2023-02-18T03:30:45;10.40;;;3.15;;
28577;SDS011;15769;52.248;15.818;2023-02-18T03:35:52;11.52;;;3.75;;
28577;SDS011;15769;52.248;15.818;2023-02-18T03:40:59;12.23;;;3.45;;
28577;SDS011;15769;52.248;15.818;2023-02-18T03:46:06;8.68;;;2.53;;
28577;SDS011;15769;52.248;15.818;2023-02-18T03:51:15;10.18;;;2.40;;
28577;SDS011;15769;52.248;15.818;2023-02-18T03:56:22;8.98;;;1.88;;
28577;SDS011;15769;52.248;15.818;2023-02-18T04:01:31;14.65;;;2.75;;
28577;SDS011;15769;52.248;15.818;2023-02-18T04:06:41;13.77;;;2.80;;
28577;SDS011;15769;52.248;15.818;2023-02-18T04:11:52;8.65;;;2.50;;
28577;SDS011;15769;52.248;15.818;2023-02-18T04:17:02;10.15;;;2.85;;
28577;SDS011;15769;52.248;15.818;2023-02-18T04:22:10;10.88;;;2.67;;
28577;SDS011;15769;52.248;15.818;2023-02-18T04:27:16;11.30;;;2.10;;
28577;SDS011;15769;52.248;15.818;2023-02-18T04:32:29;7.65;;;2.03;;
28577;SDS011;15769;52.248;15.818;2023-02-18T04:37:37;11.38;;;2.97;;
28577;SDS011;15769;52.248;15.818;2023-02-18T04:42:42;10.10;;;2.30;;
28577;SDS011;15769;52.248;15.818;2023-02-18T04:47:54;10.23;;;2.58;;
28577;SDS011;15769;52.248;15.818;2023-02-18T04:53:00;12.73;;;2.10;;
28577;SDS011;15769;52.248;15.818;2023-02-18T04:58:15;8.77;;;2.00;;
28577;SDS011;15769;52.248;15.818;2023-02-18T05:03:25;11.32;;;3.05;;
28577;SDS011;15769;52.248;15.818;2023-02-18T05:08:30;13.88;;;3.83;;
28577;SDS011;15769;52.248;15.818;2023-02-18T05:13:38;11.32;;;2.70;;
28577;SDS011;15769;52.248;15.818;2023-02-18T05:18:42;12.98;;;4.10;;
28577;SDS011;15769;52.248;15.818;2023-02-18T05:23:47;7.53;;;2.63;;
28577;SDS011;15769;52.248;15.818;2023-02-18T05:28:55;7.43;;;2.25;;
28577;SDS011;15769;52.248;15.818;2023-02-18T05:33:58;14.65;;;3.03;;
28577;SDS011;15769;52.248;15.818;2023-02-18T05:39:01;12.75;;;2.88;;
28577;SDS011;15769;52.248;15.818;2023-02-18T05:44:11;10.85;;;2.67;;
28577;SDS011;15769;52.248;15.818;2023-02-18T05:49:34;11.40;;;3.78;;
28577;SDS011;15769;52.248;15.818;2023-02-18T05:54:42;17.00;;;5.95;;
28577;SDS011;15769;52.248;15.818;2023-02-18T05:59:49;13.82;;;3.60;;
28577;SDS011;15769;52.248;15.818;2023-02-18T06:04:56;15.60;;;4.88;;
28577;SDS011;15769;52.248;15.818;2023-02-18T06:09:59;11.88;;;4.20;;
28577;SDS011;15769;52.248;15.818;2023-02-18T06:15:03;16.77;;;5.40;;
28577;SDS011;15769;52.248;15.818;2023-02-18T06:20:11;17.10;;;6.35;;
28577;SDS011;15769;52.248;15.818;2023-02-18T06:25:20;18.77;;;6.50;;
28577;SDS011;15769;52.248;15.818;2023-02-18T06:30:26;11.45;;;3.60;;
28577;SDS011;15769;52.248;15.818;2023-02-18T06:35:33;9.27;;;2.42;;
28577;SDS011;15769;52.248;15.818;2023-02-18T06:40:40;7.47;;;2.20;;
28577;SDS011;15769;52.248;15.818;2023-02-18T06:45:44;27.23;;;6.35;;
28577;SDS011;15769;52.248;15.818;2023-02-18T06:50:51;15.20;;;7.22;;
28577;SDS011;15769;52.248;15.818;2023-02-18T07:01:13;14.10;;;4.03;;
28577;SDS011;15769;52.248;15.818;2023-02-18T07:06:28;12.02;;;4.15;;
28577;SDS011;15769;52.248;15.818;2023-02-18T07:11:36;12.13;;;4.63;;
28577;SDS011;15769;52.248;15.818;2023-02-18T07:16:52;9.40;;;2.72;;
28577;SDS011;15769;52.248;15.818;2023-02-18T07:21:57;10.80;;;3.08;;
28577;SDS011;15769;52.248;15.818;2023-02-18T07:27:12;13.43;;;2.90;;
28577;SDS011;15769;52.248;15.818;2023-02-18T07:32:25;6.60;;;2.53;;
28577;SDS011;15769;52.248;15.818;2023-02-18T07:42:38;6.82;;;2.78;;
28577;SDS011;15769;52.248;15.818;2023-02-18T07:47:44;7.72;;;2.83;;
28577;SDS011;15769;52.248;15.818;2023-02-18T07:52:50;7.28;;;2.33;;
28577;SDS011;15769;52.248;15.818;2023-02-18T07:57:56;10.13;;;3.88;;
28577;SDS011;15769;52.248;15.818;2023-02-18T08:03:05;11.75;;;3.97;;
28577;SDS011;15769;52.248;15.818;2023-02-18T08:08:14;6.13;;;2.65;;
28577;SDS011;15769;52.248;15.818;2023-02-18T08:13:28;6.88;;;2.58;;
28577;SDS011;15769;52.248;15.818;2023-02-18T08:18:42;4.95;;;2.00;;
28577;SDS011;15769;52.248;15.818;2023-02-18T08:23:52;6.40;;;2.15;;
28577;SDS011;15769;52.248;15.818;2023-02-18T08:28:55;7.00;;;2.63;;
28577;SDS011;15769;52.248;15.818;2023-02-18T08:33:59;6.30;;;2.50;;
28577;SDS011;15769;52.248;15.818;2023-02-18T08:39:06;8.82;;;2.60;;
28577;SDS011;15769;52.248;15.818;2023-02-18T08:44:11;9.10;;;2.65;;
28577;SDS011;15769;52.248;15.818;2023-02-18T08:49:19;4.35;;;1.90;;
28577;SDS011;15769;52.248;15.818;2023-02-18T08:54:23;8.38;;;2.60;;
28577;SDS011;15769;52.248;15.818;2023-02-18T08:59:27;12.18;;;4.28;;
28577;SDS011;15769;52.248;15.818;2023-02-18T09:04:37;32.35;;;10.23;;
28577;SDS011;15769;52.248;15.818;2023-02-18T09:09:44;11.35;;;4.00;;
28577;SDS011;15769;52.248;15.818;2023-02-18T09:14:49;6.85;;;2.70;;
28577;SDS011;15769;52.248;15.818;2023-02-18T09:19:53;6.05;;;2.70;;
28577;SDS011;15769;52.248;15.818;2023-02-18T09:24:56;6.15;;;2.72;;
28577;SDS011;15769;52.248;15.818;2023-02-18T09:30:03;7.20;;;2.28;;
28577;SDS011;15769;52.248;15.818;2023-02-18T09:35:10;6.95;;;2.20;;
28577;SDS011;15769;52.248;15.818;2023-02-18T09:40:23;9.95;;;2.92;;
28577;SDS011;15769;52.248;15.818;2023-02-18T09:45:29;10.23;;;2.72;;
28577;SDS011;15769;52.248;15.818;2023-02-18T09:50:35;6.57;;;2.70;;
28577;SDS011;15769;52.248;15.818;2023-02-18T09:55:49;6.80;;;2.85;;
28577;SDS011;15769;52.248;15.818;2023-02-18T10:01:03;7.18;;;2.80;;
28577;SDS011;15769;52.248;15.818;2023-02-18T10:06:23;5.27;;;2.40;;
28577;SDS011;15769;52.248;15.818;2023-02-18T10:11:30;10.63;;;4.50;;
28577;SDS011;15769;52.248;15.818;2023-02-18T10:16:42;14.97;;;4.83;;
28577;SDS011;15769;52.248;15.818;2023-02-18T10:21:46;10.85;;;4.43;;
28577;SDS011;15769;52.248;15.818;2023-02-18T10:26:56;24.15;;;10.65;;
28577;SDS011;15769;52.248;15.818;2023-02-18T10:48:56;6.20;;;3.43;;
28577;SDS011;15769;52.248;15.818;2023-02-18T10:54:23;4.60;;;2.40;;
28577;SDS011;15769;52.248;15.818;2023-02-18T10:59:33;12.68;;;10.05;;
28577;SDS011;15769;52.248;15.818;2023-02-18T11:04:48;30.63;;;16.95;;
28577;SDS011;15769;52.248;15.818;2023-02-18T11:10:14;28.95;;;17.38;;
28577;SDS011;15769;52.248;15.818;2023-02-18T11:15:57;15.33;;;7.87;;
28577;SDS011;15769;52.248;15.818;2023-02-18T11:21:25;23.60;;;7.32;;
28577;SDS011;15769;52.248;15.818;2023-02-18T11:27:07;25.95;;;9.18;;
28577;SDS011;15769;52.248;15.818;2023-02-18T11:32:17;26.60;;;10.13;;
28577;SDS011;15769;52.248;15.818;2023-02-18T11:37:23;18.92;;;8.18;;
28577;SDS011;15769;52.248;15.818;2023-02-18T11:42:31;75.10;;;27.45;;
28577;SDS011;15769;52.248;15.818;2023-02-18T11:47:39;68.28;;;25.85;;
28577;SDS011;15769;52.248;15.818;2023-02-18T11:53:16;137.27;;;69.40;;
28577;SDS011;15769;52.248;15.818;2023-02-18T11:58:49;67.53;;;34.95;;
28577;SDS011;15769;52.248;15.818;2023-02-18T12:09:48;46.70;;;22.48;;
28577;SDS011;15769;52.248;15.818;2023-02-18T12:15:07;45.92;;;18.90;;
28577;SDS011;15769;52.248;15.818;2023-02-18T13:17:04;66.47;;;39.13;;
28577;SDS011;15769;52.248;15.818;2023-02-18T13:22:28;49.33;;;25.45;;
28577;SDS011;15769;52.248;15.818;2023-02-18T13:27:58;53.22;;;27.23;;
28577;SDS011;15769;52.248;15.818;2023-02-18T13:33:33;64.80;;;33.38;;
28577;SDS011;15769;52.248;15.818;2023-02-18T13:39:06;78.35;;;37.17;;
28577;SDS011;15769;52.248;15.818;2023-02-18T13:50:22;84.38;;;56.13;;
28577;SDS011;15769;52.248;15.818;2023-02-18T14:01:18;102.57;;;44.33;;
28577;SDS011;15769;52.248;15.818;2023-02-18T14:07:15;45.50;;;26.23;;
28577;SDS011;15769;52.248;15.818;2023-02-18T14:24:12;67.25;;;29.35;;
28577;SDS011;15769;52.248;15.818;2023-02-18T14:29:43;25.48;;;14.38;;
28577;SDS011;15769;52.248;15.818;2023-02-18T14:57:47;43.83;;;21.08;;
28577;SDS011;15769;52.248;15.818;2023-02-18T15:03:16;67.82;;;35.85;;
28577;SDS011;15769;52.248;15.818;2023-02-18T15:09:24;64.38;;;33.13;;
28577;SDS011;15769;52.248;15.818;2023-02-18T15:15:34;44.83;;;22.33;;
28577;SDS011;15769;52.248;15.818;2023-02-18T15:21:08;89.95;;;40.85;;
28577;SDS011;15769;52.248;15.818;2023-02-18T15:26:29;78.55;;;43.75;;
28577;SDS011;15769;52.248;15.818;2023-02-18T15:31:42;106.45;;;60.38;;
28577;SDS011;15769;52.248;15.818;2023-02-18T15:37:28;44.22;;;22.88;;
28577;SDS011;15769;52.248;15.818;2023-02-18T15:42:55;63.03;;;31.33;;
28577;SDS011;15769;52.248;15.818;2023-02-18T15:48:25;53.20;;;31.05;;
28577;SDS011;15769;52.248;15.818;2023-02-18T15:54:17;43.20;;;22.02;;
28577;SDS011;15769;52.248;15.818;2023-02-18T15:59:33;92.40;;;47.33;;
28577;SDS011;15769;52.248;15.818;2023-02-18T16:05:02;37.42;;;19.73;;
28577;SDS011;15769;52.248;15.818;2023-02-18T16:26:44;84.97;;;43.20;;
28577;SDS011;15769;52.248;15.818;2023-02-18T16:31:52;130.65;;;57.58;;
28577;SDS011;15769;52.248;15.818;2023-02-18T16:37:06;149.27;;;53.60;;
28577;SDS011;15769;52.248;15.818;2023-02-18T16:42:42;99.00;;;36.35;;
28577;SDS011;15769;52.248;15.818;2023-02-18T16:47:52;101.85;;;37.05;;
28577;SDS011;15769;52.248;15.818;2023-02-18T16:53:04;157.60;;;59.90;;
28577;SDS011;15769;52.248;15.818;2023-02-18T16:58:14;57.80;;;30.50;;
28577;SDS011;15769;52.248;15.818;2023-02-18T17:03:21;29.45;;;15.40;;
28577;SDS011;15769;52.248;15.818;2023-02-18T17:08:29;28.77;;;14.27;;
28577;SDS011;15769;52.248;15.818;2023-02-18T17:13:38;24.85;;;13.85;;
28577;SDS011;15769;52.248;15.818;2023-02-18T17:18:49;30.52;;;15.60;;
28577;SDS011;15769;52.248;15.818;2023-02-18T17:24:02;33.20;;;16.97;;
28577;SDS011;15769;52.248;15.818;2023-02-18T17:29:32;28.08;;;13.90;;
28577;SDS011;15769;52.248;15.818;2023-02-18T17:34:51;32.38;;;15.98;;
28577;SDS011;15769;52.248;15.818;2023-02-18T17:40:18;32.20;;;15.27;;
28577;SDS011;15769;52.248;15.818;2023-02-18T17:45:34;19.08;;;11.43;;
28577;SDS011;15769;52.248;15.818;2023-02-18T17:50:56;24.38;;;12.63;;
28577;SDS011;15769;52.248;15.818;2023-02-18T17:56:16;17.10;;;8.90;;
28577;SDS011;15769;52.248;15.818;2023-02-18T18:01:43;16.35;;;8.38;;
28577;SDS011;15769;52.248;15.818;2023-02-18T18:13:24;21.30;;;10.45;;
28577;SDS011;15769;52.248;15.818;2023-02-18T18:18:38;18.55;;;9.75;;
28577;SDS011;15769;52.248;15.818;2023-02-18T18:23:57;29.23;;;17.80;;
28577;SDS011;15769;52.248;15.818;2023-02-18T18:29:19;32.22;;;15.77;;
28577;SDS011;15769;52.248;15.818;2023-02-18T18:40:30;24.55;;;13.85;;
28577;SDS011;15769;52.248;15.818;2023-02-18T18:45:59;23.90;;;11.32;;
28577;SDS011;15769;52.248;15.818;2023-02-18T18:56:39;8.55;;;5.45;;
28577;SDS011;15769;52.248;15.818;2023-02-18T19:01:52;12.80;;;7.72;;
28577;SDS011;15769;52.248;15.818;2023-02-18T19:07:01;14.90;;;9.07;;
28577;SDS011;15769;52.248;15.818;2023-02-18T19:12:09;19.88;;;10.48;;
28577;SDS011;15769;52.248;15.818;2023-02-18T19:17:25;11.25;;;7.03;;
28577;SDS011;15769;52.248;15.818;2023-02-18T19:22:57;12.90;;;7.20;;
28577;SDS011;15769;52.248;15.818;2023-02-18T19:28:20;26.95;;;11.52;;
28577;SDS011;15769;52.248;15.818;2023-02-18T19:33:50;20.87;;;9.20;;
28577;SDS011;15769;52.248;15.818;2023-02-18T19:39:01;20.33;;;8.73;;
28577;SDS011;15769;52.248;15.818;2023-02-18T19:44:33;17.67;;;10.50;;
28577;SDS011;15769;52.248;15.818;2023-02-18T19:49:51;22.38;;;12.38;;
28577;SDS011;15769;52.248;15.818;2023-02-18T19:55:11;29.42;;;14.40;;
28577;SDS011;15769;52.248;15.818;2023-02-18T20:00:28;22.20;;;9.10;;
28577;SDS011;15769;52.248;15.818;2023-02-18T20:05:39;9.50;;;4.68;;
28577;SDS011;15769;52.248;15.818;2023-02-18T20:10:57;21.23;;;12.05;;
28577;SDS011;15769;52.248;15.818;2023-02-18T20:16:18;31.92;;;10.02;;
28577;SDS011;15769;52.248;15.818;2023-02-18T20:21:30;27.63;;;8.40;;
28577;SDS011;15769;52.248;15.818;2023-02-18T20:26:50;23.08;;;7.68;;
28577;SDS011;15769;52.248;15.818;2023-02-18T20:32:17;24.15;;;10.75;;
28577;SDS011;15769;52.248;15.818;2023-02-18T20:37:33;26.52;;;15.18;;
28577;SDS011;15769;52.248;15.818;2023-02-18T20:42:59;41.92;;;12.18;;
28577;SDS011;15769;52.248;15.818;2023-02-18T20:48:22;42.67;;;12.23;;
28577;SDS011;15769;52.248;15.818;2023-02-18T20:53:41;22.17;;;9.73;;
28577;SDS011;15769;52.248;15.818;2023-02-18T20:59:20;17.42;;;9.23;;
28577;SDS011;15769;52.248;15.818;2023-02-18T21:04:42;18.15;;;10.07;;
28577;SDS011;15769;52.248;15.818;2023-02-18T21:10:02;25.63;;;13.45;;
28577;SDS011;15769;52.248;15.818;2023-02-18T21:15:24;19.45;;;11.38;;
28577;SDS011;15769;52.248;15.818;2023-02-18T21:20:44;41.70;;;18.67;;
28577;SDS011;15769;52.248;15.818;2023-02-18T21:31:29;27.95;;;14.63;;
28577;SDS011;15769;52.248;15.818;2023-02-18T21:41:57;26.40;;;11.85;;
28577;SDS011;15769;52.248;15.818;2023-02-18T21:47:12;19.77;;;10.40;;
28577;SDS011;15769;52.248;15.818;2023-02-18T21:52:20;33.25;;;16.08;;
28577;SDS011;15769;52.248;15.818;2023-02-18T21:57:26;30.85;;;13.23;;
28577;SDS011;15769;52.248;15.818;2023-02-18T22:02:36;28.30;;;13.07;;
28577;SDS011;15769;52.248;15.818;2023-02-18T22:07:52;18.35;;;10.05;;
28577;SDS011;15769;52.248;15.818;2023-02-18T22:13:00;18.15;;;10.20;;
28577;SDS011;15769;52.248;15.818;2023-02-18T22:18:09;23.95;;;11.50;;
28577;SDS011;15769;52.248;15.818;2023-02-18T22:23:17;20.92;;;11.25;;
28577;SDS011;15769;52.248;15.818;2023-02-18T22:28:21;24.60;;;13.15;;
28577;SDS011;15769;52.248;15.818;2023-02-18T22:33:25;25.08;;;12.52;;
28577;SDS011;15769;52.248;15.818;2023-02-18T22:38:34;29.65;;;13.57;;
28577;SDS011;15769;52.248;15.818;2023-02-18T22:43:43;22.33;;;10.23;;
28577;SDS011;15769;52.248;15.818;2023-02-18T22:48:50;21.15;;;10.40;;
28577;SDS011;15769;52.248;15.818;2023-02-18T22:53:54;24.40;;;11.40;;
28577;SDS011;15769;52.248;15.818;2023-02-18T22:59:06;19.10;;;9.80;;
28577;SDS011;15769;52.248;15.818;2023-02-18T23:04:18;19.05;;;9.75;;
28577;SDS011;15769;52.248;15.818;2023-02-18T23:09:30;27.23;;;14.02;;
28577;SDS011;15769;52.248;15.818;2023-02-18T23:14:39;36.72;;;16.23;;
28577;SDS011;15769;52.248;15.818;2023-02-18T23:19:48;22.10;;;11.32;;
28577;SDS011;15769;52.248;15.818;2023-02-18T23:24:55;17.30;;;9.95;;
28577;SDS011;15769;52.248;15.818;2023-02-18T23:30:02;21.83;;;10.77;;
28577;SDS011;15769;52.248;15.818;2023-02-18T23:35:09;21.42;;;11.30;;
28577;SDS011;15769;52.248;15.818;2023-02-18T23:40:17;16.75;;;8.55;;
28577;SDS011;15769;52.248;15.818;2023-02-18T23:45:21;16.33;;;9.13;;
28577;SDS011;15769;52.248;15.818;2023-02-18T23:50:44;21.25;;;10.32;;
28577;SDS011;15769;52.248;15.818;2023-02-18T23:55:58;36.65;;;13.77;;
